createdAt,value
2022-12-27T00:00:59.485Z,5.20
2022-12-27T00:03:26.102Z,5.10
2022-12-27T00:05:52.831Z,5.00
2022-12-27T00:08:19.469Z,4.90
2022-12-27T00:10:46.295Z,4.80
2022-12-27T00:13:12.888Z,4.80
2022-12-27T00:15:40.837Z,4.90
2022-12-27T00:18:07.363Z,4.80
2022-12-27T00:20:34.059Z,4.80
2022-12-27T00:23:03.651Z,4.80
2022-12-27T00:25:30.148Z,4.70
2022-12-27T00:27:57.165Z,4.70
2022-12-27T00:30:25.181Z,4.70
2022-12-27T00:32:51.744Z,4.60
2022-12-27T00:35:18.399Z,4.50
2022-12-27T00:37:44.928Z,4.50
2022-12-27T00:40:11.996Z,4.40
2022-12-27T00:42:38.507Z,4.40
2022-12-27T00:45:05.849Z,4.30
2022-12-27T00:47:32.307Z,4.30
2022-12-27T00:49:58.799Z,4.20
2022-12-27T00:52:25.384Z,4.20
2022-12-27T00:54:51.951Z,4.10
2022-12-27T00:57:18.877Z,4.10
2022-12-27T00:59:46.865Z,4.00
2022-12-27T01:02:13.861Z,4.00
2022-12-27T01:04:40.489Z,3.90
2022-12-27T01:07:06.998Z,3.90
2022-12-27T01:09:33.480Z,3.90
2022-12-27T01:12:00.183Z,3.90
2022-12-27T01:14:26.692Z,3.90
2022-12-27T01:16:53.408Z,3.80
2022-12-27T01:19:20.391Z,3.80
2022-12-27T01:21:46.978Z,3.70
2022-12-27T01:24:16.459Z,3.80
2022-12-27T01:26:43.524Z,3.70
2022-12-27T01:29:12.596Z,3.70
2022-12-27T01:31:39.305Z,3.80
2022-12-27T01:34:05.931Z,3.80
2022-12-27T01:36:32.708Z,3.80
2022-12-27T01:39:00.262Z,3.70
2022-12-27T01:41:53.357Z,3.70
2022-12-27T01:44:49.232Z,3.60
2022-12-27T01:47:22.295Z,3.50
2022-12-27T01:50:01.729Z,3.60
2022-12-27T01:52:35.471Z,3.50
2022-12-27T01:55:11.127Z,3.50
2022-12-27T01:57:38.167Z,3.40
2022-12-27T02:00:06.214Z,3.40
2022-12-27T02:02:33.149Z,3.40
2022-12-27T02:05:00.043Z,3.30
2022-12-27T02:07:35.477Z,3.30
2022-12-27T02:10:03.336Z,3.20
2022-12-27T02:12:30.138Z,3.20
2022-12-27T02:14:56.875Z,3.20
2022-12-27T02:17:27.008Z,3.20
2022-12-27T02:20:12.754Z,3.20
2022-12-27T02:23:39.358Z,3.20
2022-12-27T02:26:33.908Z,3.10
2022-12-27T02:29:13.830Z,3.00
2022-12-27T02:31:57.650Z,3.10
2022-12-27T02:34:57.383Z,3.00
2022-12-27T02:37:28.239Z,3.00
2022-12-27T02:39:57.245Z,3.00
2022-12-27T02:42:42.744Z,3.00
2022-12-27T02:45:38.279Z,3.00
2022-12-27T02:48:28.668Z,2.90
2022-12-27T02:51:26.847Z,2.80
2022-12-27T02:54:08.975Z,2.80
2022-12-27T02:57:07.037Z,2.70
2022-12-27T03:00:07.653Z,2.80
2022-12-27T03:03:06.744Z,2.80
2022-12-27T03:06:15.277Z,2.70
2022-12-27T03:08:56.476Z,2.70
2022-12-27T03:11:45.126Z,2.60
2022-12-27T03:14:42.465Z,2.60
2022-12-27T03:17:14.849Z,2.60
2022-12-27T03:20:08.585Z,2.50
2022-12-27T03:22:55.834Z,2.60
2022-12-27T03:25:29.437Z,2.60
2022-12-27T03:28:21.083Z,2.60
2022-12-27T03:31:10.686Z,2.60
2022-12-27T03:33:38.271Z,2.60
2022-12-27T03:36:37.057Z,2.60
2022-12-27T03:39:07.021Z,2.50
2022-12-27T03:41:59.366Z,2.50
2022-12-27T03:44:27.028Z,2.50
2022-12-27T03:47:20.619Z,2.50
2022-12-27T03:50:13.656Z,2.40
2022-12-27T03:52:49.186Z,2.50
2022-12-27T03:55:17.656Z,2.50
2022-12-27T03:57:44.260Z,2.40
2022-12-27T04:00:11.486Z,2.40
2022-12-27T04:02:39.184Z,2.50
2022-12-27T04:05:06.380Z,2.50
2022-12-27T04:07:33.215Z,2.40
2022-12-27T04:10:18.323Z,2.50
2022-12-27T04:13:03.699Z,2.50
2022-12-27T04:15:48.931Z,2.40
2022-12-27T04:18:34.228Z,2.60
2022-12-27T04:21:19.392Z,2.60
2022-12-27T04:24:04.390Z,2.70
2022-12-27T04:26:49.362Z,2.70
2022-12-27T04:29:34.491Z,2.70
2022-12-27T04:32:19.604Z,2.80
2022-12-27T04:34:46.099Z,2.80
2022-12-27T04:37:16.854Z,2.80
2022-12-27T04:40:14.252Z,2.80
2022-12-27T04:43:00.737Z,2.90
2022-12-27T04:45:45.807Z,2.80
2022-12-27T04:48:32.473Z,2.90
2022-12-27T04:51:18.634Z,2.90
2022-12-27T04:54:04.740Z,2.80
2022-12-27T04:56:31.436Z,2.90
2022-12-27T04:59:16.477Z,2.90
2022-12-27T05:02:01.968Z,2.80
2022-12-27T05:04:31.110Z,2.80
2022-12-27T05:07:01.085Z,2.70
2022-12-27T05:09:46.871Z,2.80
2022-12-27T05:12:32.142Z,2.70
2022-12-27T05:14:58.770Z,2.70
2022-12-27T05:17:26.038Z,2.80
2022-12-27T05:19:52.536Z,2.90
2022-12-27T05:22:37.763Z,2.90
2022-12-27T05:25:23.487Z,2.90
2022-12-27T05:27:50.022Z,2.90
2022-12-27T05:30:16.634Z,2.90
2022-12-27T05:32:43.343Z,2.90
2022-12-27T05:35:10.383Z,3.00
2022-12-27T05:37:36.899Z,3.00
2022-12-27T05:40:04.232Z,3.10
2022-12-27T05:42:31.978Z,3.10
2022-12-27T05:44:58.444Z,3.10
2022-12-27T05:47:24.981Z,3.20
2022-12-27T05:49:51.813Z,3.20
2022-12-27T05:52:19.182Z,3.10
2022-12-27T05:54:45.839Z,3.10
2022-12-27T05:57:12.408Z,3.10
2022-12-27T05:59:39.069Z,3.10
2022-12-27T06:02:05.928Z,3.10
2022-12-27T06:04:32.807Z,3.00
2022-12-27T06:06:59.740Z,3.00
2022-12-27T06:09:26.405Z,3.00
2022-12-27T06:11:52.986Z,3.00
2022-12-27T06:14:19.457Z,3.00
2022-12-27T06:16:47.381Z,3.00
2022-12-27T06:19:14.170Z,3.10
2022-12-27T06:21:41.931Z,3.10
2022-12-27T06:24:09.335Z,3.10
2022-12-27T06:26:35.914Z,3.10
2022-12-27T06:29:03.840Z,3.10
2022-12-27T06:31:30.588Z,3.00
2022-12-27T06:33:57.661Z,3.10
2022-12-27T06:36:30.243Z,3.10
2022-12-27T06:38:57.718Z,3.30
2022-12-27T06:41:24.448Z,3.30
2022-12-27T06:43:55.251Z,3.40
2022-12-27T06:46:24.807Z,3.40
2022-12-27T06:48:51.750Z,3.40
2022-12-27T06:51:21.466Z,3.40
2022-12-27T06:53:49.362Z,3.40
2022-12-27T06:56:19.596Z,3.30
2022-12-27T06:58:47.454Z,3.30
2022-12-27T07:01:18.026Z,3.30
2022-12-27T07:03:52.120Z,3.30
2022-12-27T07:06:19.808Z,3.40
2022-12-27T07:08:47.363Z,3.40
2022-12-27T07:11:15.313Z,3.60
2022-12-27T07:13:45.233Z,3.70
2022-12-27T07:16:14.634Z,3.70
2022-12-27T07:18:41.177Z,3.80
2022-12-27T07:21:35.095Z,3.80
2022-12-27T07:24:01.843Z,3.90
2022-12-27T07:26:30.665Z,3.90
2022-12-27T07:28:59.459Z,3.90
2022-12-27T07:31:30.047Z,3.90
2022-12-27T07:33:59.183Z,3.80
2022-12-27T07:36:29.552Z,3.80
2022-12-27T07:38:56.582Z,3.90
2022-12-27T07:41:24.851Z,4.00
2022-12-27T07:43:51.705Z,4.00
2022-12-27T07:46:20.701Z,4.10
2022-12-27T07:48:47.798Z,4.20
2022-12-27T07:51:15.423Z,4.20
2022-12-27T07:53:42.498Z,4.20
2022-12-27T07:56:12.094Z,4.20
2022-12-27T07:58:40.826Z,4.20
2022-12-27T08:01:09.398Z,4.20
2022-12-27T08:03:36.251Z,4.20
2022-12-27T08:06:03.068Z,4.10
2022-12-27T08:08:38.439Z,4.10
2022-12-27T08:11:05.830Z,3.90
2022-12-27T08:13:33.218Z,4.00
2022-12-27T08:15:59.709Z,4.10
2022-12-27T08:18:26.562Z,4.10
2022-12-27T08:20:53.233Z,4.10
2022-12-27T08:23:20.314Z,4.20
2022-12-27T08:25:48.922Z,4.20
2022-12-27T08:28:17.743Z,4.20
2022-12-27T08:30:45.876Z,4.30
2022-12-27T08:33:12.848Z,4.20
2022-12-27T08:35:52.584Z,4.30
2022-12-27T08:38:23.013Z,4.30
2022-12-27T08:40:51.009Z,4.30
2022-12-27T08:43:17.679Z,4.30
2022-12-27T08:45:44.294Z,4.30
2022-12-27T08:48:11.057Z,4.30
2022-12-27T08:50:37.890Z,4.30
2022-12-27T08:53:06.401Z,4.30
2022-12-27T08:55:34.293Z,4.40
2022-12-27T08:58:10.564Z,4.40
2022-12-27T09:00:42.114Z,4.50
2022-12-27T09:03:09.555Z,4.50
2022-12-27T09:05:41.383Z,4.60
2022-12-27T09:08:09.893Z,4.70
2022-12-27T09:10:36.781Z,4.80
2022-12-27T09:13:03.977Z,4.80
2022-12-27T09:15:30.945Z,4.80
2022-12-27T09:17:58.017Z,4.70
2022-12-27T09:20:24.752Z,4.70
2022-12-27T09:22:54.934Z,4.60
2022-12-27T09:25:21.761Z,4.60
2022-12-27T09:27:48.547Z,4.60
2022-12-27T09:30:15.331Z,4.70
2022-12-27T09:32:42.093Z,4.90
2022-12-27T09:35:09.155Z,5.30
2022-12-27T09:37:38.333Z,5.50
2022-12-27T09:40:06.020Z,5.60
2022-12-27T09:43:09.453Z,5.50
2022-12-27T09:45:52.446Z,5.50
2022-12-27T09:48:34.244Z,5.50
2022-12-27T09:51:26.975Z,5.50
2022-12-27T09:54:02.493Z,5.60
2022-12-27T09:57:01.690Z,5.40
2022-12-27T09:59:34.857Z,5.40
2022-12-27T10:02:02.046Z,5.40
2022-12-27T10:05:01.233Z,5.50
2022-12-27T10:07:43.848Z,5.60
2022-12-27T10:10:40.580Z,5.60
2022-12-27T10:13:39.920Z,5.70
2022-12-27T10:16:31.134Z,5.90
2022-12-27T10:19:20.052Z,6.10
2022-12-27T10:22:02.588Z,6.20
2022-12-27T10:24:49.021Z,6.20
2022-12-27T10:27:20.552Z,6.20
2022-12-27T10:29:49.098Z,6.10
2022-12-27T10:32:16.667Z,6.20
2022-12-27T10:34:43.387Z,6.20
2022-12-27T10:37:17.610Z,6.20
2022-12-27T10:39:44.365Z,6.10
2022-12-27T10:42:34.229Z,6.10
2022-12-27T10:45:42.672Z,6.00
2022-12-27T10:48:13.860Z,6.00
2022-12-27T10:50:49.088Z,6.00
2022-12-27T10:53:32.205Z,6.00
2022-12-27T10:56:08.007Z,6.00
2022-12-27T10:58:37.971Z,6.00
2022-12-27T11:01:04.812Z,6.00
2022-12-27T11:03:32.332Z,6.00
2022-12-27T11:06:04.642Z,6.00
2022-12-27T11:08:34.307Z,6.00
2022-12-27T11:11:15.910Z,5.90
2022-12-27T11:13:42.756Z,5.90
2022-12-27T11:16:28.722Z,5.90
2022-12-27T11:18:59.146Z,5.90
2022-12-27T11:21:28.164Z,6.00
2022-12-27T11:24:04.210Z,6.10
2022-12-27T11:26:40.556Z,6.10
2022-12-27T11:29:16.750Z,6.10
2022-12-27T11:31:48.709Z,6.30
2022-12-27T11:34:24.311Z,6.40
2022-12-27T11:36:54.761Z,6.30
2022-12-27T11:39:39.236Z,6.40
2022-12-27T11:42:18.412Z,6.30
2022-12-27T11:44:52.454Z,6.30
2022-12-27T11:47:31.480Z,6.20
2022-12-27T11:50:14.709Z,6.20
2022-12-27T11:53:15.632Z,6.20
2022-12-27T11:56:07.309Z,6.10
2022-12-27T11:58:48.636Z,6.10
2022-12-27T12:02:01.179Z,6.30
2022-12-27T12:05:22.381Z,6.30
2022-12-27T12:08:01.416Z,6.20
2022-12-27T12:10:55.831Z,6.20
2022-12-27T12:13:39.013Z,6.20
2022-12-27T12:16:25.389Z,6.20
2022-12-27T12:19:20.699Z,6.40
2022-12-27T12:22:39.933Z,6.40
2022-12-27T12:25:38.935Z,6.40
2022-12-27T12:29:00.342Z,7.40
2022-12-27T12:31:48.561Z,7.60
2022-12-27T12:34:51.544Z,7.20
2022-12-27T12:37:37.462Z,7.00
2022-12-27T12:40:21.199Z,7.00
2022-12-27T12:43:24.947Z,6.90
2022-12-27T12:46:02.387Z,6.80
2022-12-27T12:48:48.102Z,6.70
2022-12-27T12:51:45.246Z,6.60
2022-12-27T12:54:30.136Z,6.60
2022-12-27T12:57:18.654Z,6.60
2022-12-27T12:59:54.676Z,6.60
2022-12-27T13:02:49.392Z,6.50
2022-12-27T13:05:30.222Z,6.50
2022-12-27T13:08:16.442Z,6.50
2022-12-27T13:10:52.059Z,6.40
2022-12-27T13:13:39.262Z,6.40
2022-12-27T13:16:25.482Z,6.30
2022-12-27T13:19:07.380Z,6.40
2022-12-27T13:21:54.839Z,6.40
2022-12-27T13:24:38.676Z,6.40
2022-12-27T13:27:25.125Z,6.50
2022-12-27T13:30:16.653Z,6.50
2022-12-27T13:33:09.374Z,6.40
2022-12-27T13:36:03.257Z,6.50
2022-12-27T13:39:01.410Z,6.40
2022-12-27T13:42:05.395Z,6.40
2022-12-27T13:44:42.109Z,6.50
2022-12-27T13:47:12.395Z,6.40
2022-12-27T13:50:12.439Z,6.40
2022-12-27T13:53:17.488Z,6.40
2022-12-27T13:56:51.504Z,6.40
2022-12-27T13:59:27.982Z,6.40
2022-12-27T14:02:50.820Z,6.40
2022-12-27T14:05:31.942Z,6.40
2022-12-27T14:08:35.996Z,6.40
2022-12-27T14:11:06.914Z,6.40
2022-12-27T14:13:52.808Z,6.50
2022-12-27T14:16:35.429Z,6.40
2022-12-27T14:19:19.082Z,6.40
2022-12-27T14:22:23.039Z,6.40
2022-12-27T14:24:58.766Z,6.30
2022-12-27T14:27:58.847Z,6.20
2022-12-27T14:31:07.889Z,6.10
2022-12-27T14:34:16.507Z,6.10
2022-12-27T14:37:06.034Z,6.00
2022-12-27T14:39:49.059Z,6.00
2022-12-27T14:42:45.830Z,5.80
2022-12-27T14:45:25.023Z,5.70
2022-12-27T14:48:29.213Z,5.60
2022-12-27T14:51:58.872Z,5.50
2022-12-27T14:54:19.481Z,5.30
2022-12-27T14:56:52.059Z,5.20
2022-12-27T14:59:36.959Z,5.20
2022-12-27T15:02:38.887Z,5.00
2022-12-27T15:05:22.378Z,5.10
2022-12-27T15:08:31.980Z,5.00
2022-12-27T15:11:17.965Z,4.90
2022-12-27T15:13:58.401Z,4.90
2022-12-27T15:16:55.910Z,4.80
2022-12-27T15:19:52.787Z,4.80
2022-12-27T15:22:49.501Z,4.80
2022-12-27T15:25:43.854Z,4.70
2022-12-27T15:28:36.269Z,4.60
2022-12-27T15:31:21.452Z,4.50
2022-12-27T15:34:11.306Z,4.50
2022-12-27T15:36:43.465Z,4.60
2022-12-27T15:39:34.937Z,4.40
2022-12-27T15:42:33.037Z,4.40
2022-12-27T15:45:20.384Z,4.30
2022-12-27T15:48:10.000Z,4.20
2022-12-27T15:51:12.198Z,4.20
2022-12-27T15:53:54.714Z,4.20
2022-12-27T15:56:40.038Z,4.10
2022-12-27T15:59:34.868Z,4.00
2022-12-27T16:02:24.451Z,3.90
2022-12-27T16:04:56.690Z,4.00
2022-12-27T16:07:55.388Z,3.90
2022-12-27T16:10:31.563Z,3.90
2022-12-27T16:13:10.525Z,3.90
2022-12-27T16:15:52.146Z,3.90
2022-12-27T16:18:21.529Z,3.90
2022-12-27T16:20:58.232Z,3.80
2022-12-27T16:23:29.233Z,3.80
2022-12-27T16:26:16.684Z,3.70
2022-12-27T16:28:56.865Z,3.70
2022-12-27T16:31:32.382Z,3.70
2022-12-27T16:34:10.823Z,3.70
2022-12-27T16:36:44.513Z,3.70
2022-12-27T16:39:11.713Z,3.60
2022-12-27T16:41:56.715Z,3.60
2022-12-27T16:44:26.734Z,3.60
2022-12-27T16:46:56.408Z,3.60
2022-12-27T16:49:35.032Z,3.60
2022-12-27T16:52:24.124Z,3.50
2022-12-27T16:55:20.813Z,3.60
2022-12-27T16:57:51.459Z,3.50
2022-12-27T17:00:39.147Z,3.50
2022-12-27T17:03:21.242Z,3.50
2022-12-27T17:08:40.565Z,3.40
2022-12-27T17:11:30.138Z,3.40
2022-12-27T17:14:06.745Z,3.40
2022-12-27T17:16:43.223Z,3.40
2022-12-27T17:19:20.428Z,3.40
2022-12-27T17:21:54.199Z,3.30
2022-12-27T17:24:22.093Z,3.30
2022-12-27T17:27:09.255Z,3.30
2022-12-27T17:30:11.885Z,3.30
2022-12-27T17:33:02.912Z,3.30
2022-12-27T17:35:41.590Z,3.20
2022-12-27T17:38:31.356Z,3.10
2022-12-27T17:41:57.886Z,3.10
2022-12-27T17:44:39.795Z,3.10
2022-12-27T17:47:41.993Z,3.00
2022-12-27T17:50:16.366Z,3.00
2022-12-27T17:53:22.070Z,3.00
2022-12-27T17:56:22.531Z,2.90
2022-12-27T17:58:48.987Z,2.90
2022-12-27T18:01:15.747Z,2.90
2022-12-27T18:03:45.858Z,2.80
2022-12-27T18:06:17.633Z,2.80
2022-12-27T18:08:47.829Z,2.80
2022-12-27T18:11:18.834Z,2.90
2022-12-27T18:13:54.262Z,2.80
2022-12-27T18:16:31.602Z,2.80
2022-12-27T18:18:59.982Z,2.80
2022-12-27T18:21:28.579Z,2.80
2022-12-27T18:23:56.222Z,2.80
2022-12-27T18:26:38.162Z,2.70
2022-12-27T18:29:10.313Z,2.70
2022-12-27T18:31:47.626Z,2.70
2022-12-27T18:34:33.275Z,2.80
2022-12-27T18:37:06.888Z,2.80
2022-12-27T18:39:43.291Z,2.70
2022-12-27T18:42:43.740Z,2.70
2022-12-27T18:45:23.353Z,2.60
2022-12-27T18:47:55.573Z,2.60
2022-12-27T18:50:25.247Z,2.60
2022-12-27T18:53:03.761Z,2.60
2022-12-27T18:55:32.116Z,2.60
2022-12-27T18:58:20.602Z,2.60
2022-12-27T19:00:53.422Z,2.60
2022-12-27T19:03:20.821Z,2.60
2022-12-27T19:06:04.963Z,2.60
2022-12-27T19:08:51.552Z,2.50
2022-12-27T19:11:21.418Z,2.50
2022-12-27T19:13:52.169Z,2.50
2022-12-27T19:16:34.113Z,2.50
2022-12-27T19:19:24.790Z,2.50
2022-12-27T19:21:51.263Z,2.50
2022-12-27T19:24:24.047Z,2.50
2022-12-27T19:26:51.559Z,2.40
2022-12-27T19:29:28.232Z,2.40
2022-12-27T19:32:05.087Z,2.40
2022-12-27T19:34:42.532Z,2.30
2022-12-27T19:37:09.686Z,2.30
2022-12-27T19:39:38.575Z,2.30
2022-12-27T19:42:43.045Z,2.30
2022-12-27T19:45:14.904Z,2.30
2022-12-27T19:47:41.632Z,2.20
2022-12-27T19:50:09.693Z,2.20
2022-12-27T19:52:36.292Z,2.20
2022-12-27T19:55:08.470Z,2.10
2022-12-27T19:57:41.488Z,1.90
2022-12-27T20:00:16.353Z,1.80
2022-12-27T20:02:43.181Z,1.80
2022-12-27T20:05:11.254Z,1.70
2022-12-27T20:07:39.129Z,1.70
2022-12-27T20:10:07.508Z,1.80
2022-12-27T20:12:34.131Z,1.80
2022-12-27T20:15:00.772Z,1.70
2022-12-27T20:17:28.633Z,1.90
2022-12-27T20:19:55.273Z,2.00
2022-12-27T20:22:23.523Z,1.90
2022-12-27T20:27:31.952Z,2.10
2022-12-27T20:29:58.613Z,2.10
2022-12-27T20:32:25.331Z,2.20
2022-12-27T20:34:52.193Z,2.20
2022-12-27T20:37:24.326Z,2.20
2022-12-27T20:39:51.285Z,2.20
2022-12-27T20:42:17.758Z,2.30
2022-12-27T20:44:44.362Z,2.40
2022-12-27T20:47:11.033Z,2.40
2022-12-27T20:49:38.793Z,2.60
2022-12-27T20:52:05.567Z,2.70
2022-12-27T20:54:32.230Z,2.80
2022-12-27T20:57:01.680Z,2.90
2022-12-27T20:59:28.198Z,3.10
2022-12-27T21:01:57.240Z,3.10
2022-12-27T21:04:24.389Z,3.10
2022-12-27T21:06:50.940Z,3.20
2022-12-27T21:09:17.409Z,3.30
2022-12-27T21:11:45.081Z,3.40
2022-12-27T21:14:12.620Z,3.40
2022-12-27T21:16:39.470Z,3.40
2022-12-27T21:19:09.628Z,3.50
2022-12-27T21:21:37.842Z,3.50
2022-12-27T21:24:06.640Z,3.60
2022-12-27T21:26:36.910Z,3.50
2022-12-27T21:29:08.093Z,3.60
2022-12-27T21:31:35.897Z,3.60
2022-12-27T21:34:03.349Z,3.70
2022-12-27T21:36:32.269Z,3.70
2022-12-27T21:38:59.441Z,3.80
2022-12-27T21:41:34.702Z,3.90
2022-12-27T21:44:02.635Z,3.90
2022-12-27T21:46:31.802Z,4.00
2022-12-27T21:49:06.939Z,3.90
2022-12-27T21:51:35.221Z,4.00
2022-12-27T21:54:02.023Z,4.00
2022-12-27T21:56:29.271Z,4.10
2022-12-27T21:58:56.392Z,4.20
2022-12-27T22:01:28.590Z,4.10
2022-12-27T22:03:56.939Z,4.20
2022-12-27T22:06:26.445Z,4.20
2022-12-27T22:08:57.425Z,4.20
2022-12-27T22:11:25.870Z,4.20
2022-12-27T22:13:53.247Z,4.20
2022-12-27T22:16:23.340Z,4.20
2022-12-27T22:18:50.957Z,4.20
2022-12-27T22:21:21.168Z,4.20
2022-12-27T22:23:53.914Z,4.00
2022-12-27T22:26:26.707Z,3.90
2022-12-27T22:28:53.651Z,3.90
2022-12-27T22:31:22.931Z,3.80
2022-12-27T22:33:50.799Z,3.80
2022-12-27T22:36:36.734Z,3.70
2022-12-27T22:39:04.113Z,3.70
2022-12-27T22:41:33.537Z,3.80
2022-12-27T22:44:06.725Z,3.70
2022-12-27T22:49:21.758Z,3.80
2022-12-27T22:51:48.397Z,3.70
2022-12-27T22:54:17.429Z,3.70
2022-12-27T22:56:51.167Z,3.70
2022-12-27T22:59:18.010Z,3.60
2022-12-27T23:01:46.001Z,3.60
2022-12-27T23:04:14.031Z,3.60
2022-12-27T23:06:41.474Z,3.60
2022-12-27T23:09:08.401Z,3.50
2022-12-27T23:11:38.649Z,3.60
2022-12-27T23:14:10.289Z,3.60
2022-12-27T23:16:42.555Z,3.50
2022-12-27T23:19:10.200Z,3.50
2022-12-27T23:21:36.964Z,3.50
2022-12-27T23:24:04.156Z,3.50
2022-12-27T23:26:30.971Z,3.50
2022-12-27T23:28:58.739Z,3.50
2022-12-27T23:31:26.699Z,3.60
2022-12-27T23:33:53.633Z,3.70
2022-12-27T23:36:20.596Z,3.70
2022-12-27T23:38:47.389Z,3.80
2022-12-27T23:41:23.795Z,3.90
2022-12-27T23:43:55.485Z,3.90
2022-12-27T23:46:34.219Z,3.90
2022-12-27T23:49:01.834Z,4.00
2022-12-27T23:51:29.862Z,4.00
2022-12-27T23:53:56.936Z,4.00
2022-12-27T23:56:26.759Z,4.10
2022-12-27T23:58:56.628Z,4.10
